createdAt,value
2023-02-15T00:00:24.896Z,78.62
2023-02-15T00:01:06.416Z,78.39
2023-02-15T00:01:38.398Z,78.16
2023-02-15T00:02:10.254Z,78.64
2023-02-15T00:02:42.084Z,78.14
2023-02-15T00:03:14.015Z,78.62
2023-02-15T00:03:45.912Z,78.26
2023-02-15T00:04:19.632Z,78.53
2023-02-15T00:04:51.559Z,78.17
2023-02-15T00:05:23.380Z,78.08
2023-02-15T00:05:58.244Z,78.22
2023-02-15T00:06:30.227Z,78.30
2023-02-15T00:07:02.069Z,78.09
2023-02-15T00:07:33.851Z,78.54
2023-02-15T00:08:05.669Z,78.23
2023-02-15T00:08:37.546Z,78.13
2023-02-15T00:09:10.256Z,78.21
2023-02-15T00:09:42.095Z,78.73
2023-02-15T00:10:13.908Z,78.87
2023-02-15T00:10:45.670Z,78.96
2023-02-15T00:11:38.381Z,78.21
2023-02-15T00:12:10.903Z,78.83
2023-02-15T00:12:42.757Z,78.90
2023-02-15T00:13:14.537Z,78.58
2023-02-15T00:13:46.306Z,78.78
2023-02-15T00:14:22.422Z,78.54
2023-02-15T00:14:54.198Z,78.81
2023-02-15T00:15:27.041Z,78.82
2023-02-15T00:16:03.516Z,78.81
2023-02-15T00:16:35.542Z,78.98
2023-02-15T00:17:07.379Z,78.28
2023-02-15T00:17:39.161Z,78.73
2023-02-15T00:18:10.997Z,78.59
2023-02-15T00:18:43.092Z,78.68
2023-02-15T00:19:16.278Z,79.11
2023-02-15T00:19:48.069Z,78.81
2023-02-15T00:20:20.067Z,78.47
2023-02-15T00:20:51.884Z,78.69
2023-02-15T00:21:23.688Z,79.15
2023-02-15T00:21:55.496Z,79.23
2023-02-15T00:22:27.356Z,78.87
2023-02-15T00:22:59.901Z,79.30
2023-02-15T00:23:31.687Z,78.85
2023-02-15T00:24:04.809Z,79.06
2023-02-15T00:24:36.971Z,79.29
2023-02-15T00:25:08.995Z,79.49
2023-02-15T00:25:40.804Z,79.28
2023-02-15T00:26:12.795Z,78.89
2023-02-15T00:26:44.811Z,78.45
2023-02-15T00:27:16.594Z,78.92
2023-02-15T00:27:48.360Z,79.29
2023-02-15T00:28:20.261Z,79.25
2023-02-15T00:28:52.285Z,78.91
2023-02-15T00:29:24.072Z,79.36
2023-02-15T00:29:55.896Z,79.02
2023-02-15T00:30:27.880Z,79.15
2023-02-15T00:31:12.416Z,79.03
2023-02-15T00:31:44.192Z,79.41
2023-02-15T00:32:16.020Z,79.28
2023-02-15T00:32:49.164Z,79.35
2023-02-15T00:33:21.169Z,78.89
2023-02-15T00:33:52.935Z,78.98
2023-02-15T00:34:26.620Z,78.98
2023-02-15T00:34:58.408Z,79.28
2023-02-15T00:35:30.473Z,79.08
2023-02-15T00:36:34.792Z,78.66
2023-02-15T00:37:06.584Z,78.57
2023-02-15T00:37:38.396Z,79.28
2023-02-15T00:38:13.781Z,78.64
2023-02-15T00:38:45.594Z,79.37
2023-02-15T00:39:17.728Z,79.16
2023-02-15T00:39:49.546Z,78.59
2023-02-15T00:40:21.439Z,78.63
2023-02-15T00:40:56.623Z,79.33
2023-02-15T00:41:28.393Z,78.83
2023-02-15T00:42:00.388Z,79.27
2023-02-15T00:42:32.255Z,78.95
2023-02-15T00:43:04.024Z,79.01
2023-02-15T00:44:09.594Z,78.83
2023-02-15T00:44:41.380Z,78.94
2023-02-15T00:45:46.852Z,79.08
2023-02-15T00:46:18.695Z,79.19
2023-02-15T00:47:26.365Z,79.19
2023-02-15T00:47:58.190Z,79.01
2023-02-15T00:48:30.107Z,79.08
2023-02-15T00:49:02.072Z,78.68
2023-02-15T00:49:33.905Z,79.20
2023-02-15T00:50:06.569Z,79.08
2023-02-15T00:50:38.354Z,78.88
2023-02-15T00:51:10.155Z,78.93
2023-02-15T00:51:41.925Z,79.10
2023-02-15T00:52:13.723Z,78.97
2023-02-15T00:52:45.540Z,79.18
2023-02-15T00:53:17.526Z,79.36
2023-02-15T00:53:49.424Z,79.85
2023-02-15T00:54:21.233Z,79.69
2023-02-15T00:54:53.029Z,79.90
2023-02-15T00:55:24.846Z,79.65
2023-02-15T00:55:57.228Z,79.45
2023-02-15T00:56:29.550Z,79.42
2023-02-15T00:57:02.302Z,79.40
2023-02-15T00:57:34.098Z,79.50
2023-02-15T00:58:05.935Z,79.79
2023-02-15T00:58:37.919Z,79.25
2023-02-15T00:59:42.070Z,79.37
2023-02-15T01:00:14.445Z,79.49
2023-02-15T01:00:46.963Z,79.82
2023-02-15T01:01:19.829Z,79.81
2023-02-15T01:01:51.687Z,79.39
2023-02-15T01:02:23.484Z,79.80
2023-02-15T01:02:55.288Z,79.65
2023-02-15T01:03:27.058Z,79.84
2023-02-15T01:03:58.959Z,79.62
2023-02-15T01:04:30.944Z,79.47
2023-02-15T01:05:03.981Z,79.68
2023-02-15T01:05:35.902Z,79.26
2023-02-15T01:06:40.011Z,79.85
2023-02-15T01:07:11.824Z,79.81
2023-02-15T01:07:43.641Z,79.40
2023-02-15T01:08:15.829Z,79.85
2023-02-15T01:08:47.794Z,79.54
2023-02-15T01:09:19.613Z,79.67
2023-02-15T01:09:51.390Z,79.56
2023-02-15T01:10:23.234Z,80.00
2023-02-15T01:10:55.152Z,79.48
2023-02-15T01:11:26.938Z,79.67
2023-02-15T01:11:58.748Z,80.02
2023-02-15T01:12:30.585Z,80.10
2023-02-15T01:13:02.499Z,79.63
2023-02-15T01:13:35.049Z,79.87
2023-02-15T01:14:06.868Z,79.75
2023-02-15T01:14:38.649Z,80.25
2023-02-15T01:15:10.524Z,80.14
2023-02-15T01:15:44.012Z,80.26
2023-02-15T01:16:15.984Z,79.76
2023-02-15T01:16:47.805Z,79.99
2023-02-15T01:17:19.651Z,79.82
2023-02-15T01:17:54.454Z,80.43
2023-02-15T01:18:26.282Z,79.99
2023-02-15T01:18:58.118Z,80.29
2023-02-15T01:19:29.944Z,80.29
2023-02-15T01:20:36.166Z,80.07
2023-02-15T01:21:19.140Z,80.03
2023-02-15T01:21:50.902Z,79.81
2023-02-15T01:22:22.667Z,79.76
2023-02-15T01:22:54.908Z,79.89
2023-02-15T01:23:26.675Z,80.08
2023-02-15T01:24:00.843Z,79.82
2023-02-15T01:24:32.855Z,80.00
2023-02-15T01:25:05.031Z,80.17
2023-02-15T01:25:37.361Z,81.03
2023-02-15T01:26:09.850Z,80.34
2023-02-15T01:26:41.688Z,80.46
2023-02-15T01:27:13.441Z,80.23
2023-02-15T01:27:45.587Z,80.57
2023-02-15T01:28:49.787Z,80.58
2023-02-15T01:29:21.718Z,80.31
2023-02-15T01:29:53.589Z,79.92
2023-02-15T01:30:25.497Z,80.04
2023-02-15T01:30:57.370Z,80.22
2023-02-15T01:31:29.619Z,80.10
2023-02-15T01:32:01.695Z,79.73
2023-02-15T01:32:33.564Z,80.38
2023-02-15T01:33:05.504Z,80.28
2023-02-15T01:33:37.483Z,80.52
2023-02-15T01:34:09.299Z,80.56
2023-02-15T01:34:41.106Z,81.00
2023-02-15T01:35:12.964Z,80.61
2023-02-15T01:35:48.568Z,80.23
2023-02-15T01:36:20.395Z,80.28
2023-02-15T01:36:52.188Z,80.50
2023-02-15T01:37:23.977Z,80.42
2023-02-15T01:37:56.809Z,79.92
2023-02-15T01:39:01.851Z,80.21
2023-02-15T01:39:33.629Z,80.31
2023-02-15T01:40:07.711Z,80.79
2023-02-15T01:40:39.977Z,80.40
2023-02-15T01:41:29.836Z,80.60
2023-02-15T01:42:01.644Z,80.33
2023-02-15T01:42:33.455Z,80.90
2023-02-15T01:43:12.420Z,80.46
2023-02-15T01:43:49.220Z,80.15
2023-02-15T01:44:58.785Z,80.47
2023-02-15T01:45:32.115Z,80.52
2023-02-15T01:46:04.105Z,80.18
2023-02-15T01:46:36.728Z,80.07
2023-02-15T01:47:08.652Z,80.47
2023-02-15T01:47:48.582Z,80.41
2023-02-15T01:48:22.536Z,80.64
2023-02-15T01:49:06.393Z,80.34
2023-02-15T01:49:38.205Z,80.59
2023-02-15T01:50:30.825Z,80.90
2023-02-15T01:51:03.046Z,80.65
2023-02-15T01:51:35.818Z,80.75
2023-02-15T01:52:07.579Z,80.29
2023-02-15T01:53:09.920Z,80.62
2023-02-15T01:53:46.994Z,80.67
2023-02-15T01:54:22.621Z,80.81
2023-02-15T01:54:54.590Z,80.48
2023-02-15T01:55:28.192Z,80.61
2023-02-15T01:56:00.077Z,80.82
2023-02-15T01:56:33.383Z,80.30
2023-02-15T01:57:08.619Z,80.36
2023-02-15T01:58:12.925Z,80.74
2023-02-15T01:58:44.776Z,80.80
2023-02-15T01:59:19.606Z,80.67
2023-02-15T01:59:55.105Z,80.71
2023-02-15T02:00:27.041Z,80.62
2023-02-15T02:01:01.212Z,80.46
2023-02-15T02:01:33.262Z,80.93
2023-02-15T02:02:05.252Z,81.19
2023-02-15T02:02:37.082Z,80.78
2023-02-15T02:03:08.956Z,80.61
2023-02-15T02:04:02.042Z,80.55
2023-02-15T02:04:48.580Z,80.96
2023-02-15T02:05:53.272Z,80.40
2023-02-15T02:06:26.243Z,80.91
2023-02-15T02:06:58.356Z,80.78
2023-02-15T02:07:30.499Z,80.81
2023-02-15T02:08:02.548Z,80.45
2023-02-15T02:08:34.378Z,80.68
2023-02-15T02:09:06.254Z,80.46
2023-02-15T02:09:38.135Z,80.75
2023-02-15T02:10:13.402Z,81.21
2023-02-15T02:10:45.652Z,80.77
2023-02-15T02:11:17.501Z,81.00
2023-02-15T02:11:49.261Z,81.15
2023-02-15T02:12:21.501Z,80.61
2023-02-15T02:12:55.444Z,80.49
2023-02-15T02:13:27.325Z,80.34
2023-02-15T02:13:59.151Z,80.52
2023-02-15T02:15:03.536Z,81.26
2023-02-15T02:15:59.736Z,81.09
2023-02-15T02:17:49.410Z,81.23
2023-02-15T02:18:29.631Z,81.28
2023-02-15T02:19:40.568Z,81.20
2023-02-15T02:20:13.086Z,81.02
2023-02-15T02:21:36.605Z,81.40
2023-02-15T02:22:56.981Z,80.89
2023-02-15T02:23:44.295Z,80.95
2023-02-15T02:24:22.040Z,81.22
2023-02-15T02:25:15.227Z,80.35
2023-02-15T02:26:05.226Z,80.80
2023-02-15T02:26:55.225Z,80.63
2023-02-15T02:27:58.436Z,80.71
2023-02-15T02:28:45.005Z,81.10
2023-02-15T02:29:34.673Z,80.53
2023-02-15T02:30:53.822Z,80.95
2023-02-15T02:32:07.305Z,80.89
2023-02-15T02:33:03.449Z,80.55
2023-02-15T02:33:46.143Z,80.50
2023-02-15T02:34:41.078Z,81.03
2023-02-15T02:35:14.037Z,81.01
2023-02-15T02:35:59.428Z,81.05
2023-02-15T02:36:33.470Z,81.07
2023-02-15T02:37:44.198Z,81.25
2023-02-15T02:38:57.597Z,81.05
2023-02-15T02:40:00.796Z,81.55
2023-02-15T02:40:52.291Z,81.36
2023-02-15T02:41:26.770Z,81.04
2023-02-15T02:42:14.191Z,81.04
2023-02-15T02:42:57.463Z,80.88
2023-02-15T02:44:05.546Z,81.03
2023-02-15T02:44:46.084Z,81.38
2023-02-15T02:45:33.242Z,81.13
2023-02-15T02:46:19.210Z,80.91
2023-02-15T02:46:57.016Z,81.50
2023-02-15T02:47:34.898Z,81.71
2023-02-15T02:48:18.453Z,81.71
2023-02-15T02:49:39.156Z,81.48
2023-02-15T02:50:23.521Z,82.08
2023-02-15T02:50:55.358Z,81.48
2023-02-15T02:51:27.294Z,81.96
2023-02-15T02:52:01.305Z,82.01
2023-02-15T02:53:07.670Z,81.50
2023-02-15T02:53:42.496Z,82.12
2023-02-15T02:54:15.575Z,81.64
2023-02-15T02:54:47.412Z,81.58
2023-02-15T02:56:00.769Z,81.71
2023-02-15T02:56:34.803Z,81.42
2023-02-15T02:57:07.687Z,81.07
2023-02-15T02:57:44.315Z,81.48
2023-02-15T02:58:21.820Z,81.80
2023-02-15T02:59:34.792Z,81.26
2023-02-15T03:00:09.687Z,81.43
2023-02-15T03:00:47.000Z,81.27
2023-02-15T03:02:19.859Z,80.90
2023-02-15T03:03:48.576Z,80.79
2023-02-15T03:04:26.615Z,81.17
2023-02-15T03:05:04.886Z,81.53
2023-02-15T03:05:42.554Z,81.08
2023-02-15T03:06:42.770Z,81.80
2023-02-15T03:07:49.094Z,81.77
2023-02-15T03:08:25.363Z,81.52
2023-02-15T03:09:45.387Z,81.84
2023-02-15T03:10:17.688Z,81.71
2023-02-15T03:10:53.833Z,81.50
2023-02-15T03:11:58.017Z,81.47
2023-02-15T03:12:34.657Z,81.82
2023-02-15T03:13:06.780Z,81.38
2023-02-15T03:13:39.518Z,81.68
2023-02-15T03:14:15.795Z,81.53
2023-02-15T03:14:57.714Z,81.64
2023-02-15T03:16:22.203Z,81.85
2023-02-15T03:16:57.777Z,81.72
2023-02-15T03:18:05.564Z,81.86
2023-02-15T03:18:53.873Z,81.62
2023-02-15T03:20:12.503Z,81.91
2023-02-15T03:20:47.493Z,81.78
2023-02-15T03:21:25.457Z,81.80
2023-02-15T03:22:12.775Z,81.86
2023-02-15T03:22:51.852Z,82.25
2023-02-15T03:23:26.293Z,82.29
2023-02-15T03:24:18.693Z,81.93
2023-02-15T03:25:23.178Z,81.64
2023-02-15T03:26:06.280Z,81.71
2023-02-15T03:26:41.482Z,81.43
2023-02-15T03:27:19.629Z,81.22
2023-02-15T03:28:30.495Z,81.89
2023-02-15T03:29:03.758Z,81.66
2023-02-15T03:29:37.521Z,81.77
2023-02-15T03:30:10.047Z,80.71
2023-02-15T03:30:43.290Z,81.74
2023-02-15T03:31:49.198Z,81.87
2023-02-15T03:32:24.719Z,81.63
2023-02-15T03:33:00.920Z,81.53
2023-02-15T03:33:34.585Z,81.47
2023-02-15T03:34:12.639Z,81.99
2023-02-15T03:34:47.646Z,81.66
2023-02-15T03:35:25.228Z,81.94
2023-02-15T03:36:03.169Z,81.84
2023-02-15T03:36:40.560Z,81.92
2023-02-15T03:37:20.389Z,82.17
2023-02-15T03:38:35.302Z,82.33
2023-02-15T03:39:55.125Z,82.06
2023-02-15T03:40:54.495Z,82.46
2023-02-15T03:41:33.917Z,81.92
2023-02-15T03:42:29.460Z,81.53
2023-02-15T03:43:20.568Z,81.78
2023-02-15T03:44:00.756Z,81.94
2023-02-15T03:44:57.869Z,81.66
2023-02-15T03:45:33.561Z,82.05
2023-02-15T03:46:48.535Z,82.21
2023-02-15T03:47:57.057Z,82.41
2023-02-15T03:48:37.749Z,83.10
2023-02-15T03:49:18.039Z,82.74
2023-02-15T03:50:38.881Z,83.09
2023-02-15T03:51:36.180Z,83.02
2023-02-15T03:52:11.015Z,83.18
2023-02-15T03:52:43.895Z,82.81
2023-02-15T03:53:52.144Z,82.98
2023-02-15T03:54:43.646Z,82.27
2023-02-15T03:55:18.691Z,82.38
2023-02-15T03:55:56.212Z,83.04
2023-02-15T03:56:32.301Z,82.65
2023-02-15T03:57:27.032Z,82.67
2023-02-15T03:58:19.140Z,82.50
2023-02-15T03:59:42.013Z,82.96
2023-02-15T04:00:41.089Z,82.84
2023-02-15T04:02:01.046Z,82.30
2023-02-15T04:03:07.387Z,81.91
2023-02-15T04:03:45.136Z,81.64
2023-02-15T04:04:51.067Z,82.22
2023-02-15T04:05:24.618Z,82.24
2023-02-15T04:05:59.746Z,82.39
2023-02-15T04:06:33.631Z,82.39
2023-02-15T04:07:07.291Z,82.77
2023-02-15T04:07:40.532Z,82.28
2023-02-15T04:08:15.522Z,82.25
2023-02-15T04:09:08.704Z,82.21
2023-02-15T04:10:00.262Z,82.75
2023-02-15T04:10:53.651Z,82.14
2023-02-15T04:11:25.584Z,82.15
2023-02-15T04:12:32.740Z,82.45
2023-02-15T04:13:05.641Z,82.47
2023-02-15T04:13:41.196Z,82.54
2023-02-15T04:14:33.151Z,82.43
2023-02-15T04:15:31.254Z,83.42
2023-02-15T04:16:37.233Z,82.91
2023-02-15T04:17:11.106Z,82.67
2023-02-15T04:17:44.175Z,83.43
2023-02-15T04:18:19.512Z,82.66
2023-02-15T04:19:12.484Z,83.06
2023-02-15T04:20:28.125Z,82.14
2023-02-15T04:21:53.040Z,82.08
2023-02-15T04:22:47.012Z,82.91
2023-02-15T04:24:12.020Z,82.62
2023-02-15T04:25:03.996Z,82.42
2023-02-15T04:25:39.239Z,82.26
2023-02-15T04:26:48.936Z,82.58
2023-02-15T04:27:24.537Z,82.72
2023-02-15T04:27:58.895Z,83.35
2023-02-15T04:28:30.812Z,83.58
2023-02-15T04:29:38.516Z,83.26
2023-02-15T04:30:14.262Z,83.37
2023-02-15T04:30:49.542Z,83.59
2023-02-15T04:31:25.331Z,83.63
2023-02-15T04:31:59.556Z,82.74
2023-02-15T04:32:33.411Z,82.97
2023-02-15T04:33:06.493Z,83.23
2023-02-15T04:33:41.550Z,82.83
2023-02-15T04:34:16.820Z,82.92
2023-02-15T04:34:50.483Z,83.67
2023-02-15T04:35:23.661Z,83.32
2023-02-15T04:35:59.354Z,83.18
2023-02-15T04:36:34.547Z,84.10
2023-02-15T04:37:09.776Z,83.13
2023-02-15T04:37:45.549Z,82.99
2023-02-15T04:38:18.555Z,82.59
2023-02-15T04:38:53.515Z,82.66
2023-02-15T04:39:28.606Z,82.49
2023-02-15T04:40:04.594Z,82.62
2023-02-15T04:40:39.579Z,83.37
2023-02-15T04:41:14.177Z,83.39
2023-02-15T04:41:49.983Z,83.14
2023-02-15T04:42:28.651Z,83.35
2023-02-15T04:43:34.928Z,82.13
2023-02-15T04:44:08.651Z,83.04
2023-02-15T04:45:16.590Z,83.05
2023-02-15T04:45:51.760Z,83.13
2023-02-15T04:46:25.808Z,83.22
2023-02-15T04:46:59.538Z,83.26
2023-02-15T04:48:04.239Z,82.82
2023-02-15T04:48:38.903Z,82.37
2023-02-15T04:49:15.169Z,82.80
2023-02-15T04:49:50.789Z,82.75
2023-02-15T04:50:26.620Z,82.75
2023-02-15T04:51:06.722Z,82.79
2023-02-15T04:51:41.529Z,83.38
2023-02-15T04:52:49.217Z,82.41
2023-02-15T04:53:23.197Z,83.03
2023-02-15T04:53:57.840Z,82.65
2023-02-15T04:54:33.741Z,83.04
2023-02-15T04:55:08.566Z,82.78
2023-02-15T04:55:43.672Z,82.82
2023-02-15T04:56:19.000Z,82.73
2023-02-15T04:56:52.850Z,82.89
2023-02-15T04:57:25.214Z,82.64
2023-02-15T04:57:59.155Z,82.10
2023-02-15T04:58:34.485Z,82.67
2023-02-15T04:59:11.783Z,82.93
2023-02-15T04:59:45.165Z,83.03
2023-02-15T05:00:20.883Z,82.63
2023-02-15T05:00:57.919Z,83.05
2023-02-15T05:02:05.555Z,82.35
2023-02-15T05:02:40.610Z,82.66
2023-02-15T05:03:13.742Z,83.11
2023-02-15T05:03:47.883Z,83.30
2023-02-15T05:04:21.656Z,82.84
2023-02-15T05:05:29.532Z,83.30
2023-02-15T05:06:02.987Z,82.66
2023-02-15T05:06:38.464Z,82.71
2023-02-15T05:07:14.049Z,82.99
2023-02-15T05:07:46.532Z,83.21
2023-02-15T05:08:21.789Z,82.95
2023-02-15T05:08:56.326Z,82.86
2023-02-15T05:09:31.510Z,82.27
2023-02-15T05:10:07.156Z,82.62
2023-02-15T05:10:40.601Z,82.46
2023-02-15T05:11:15.596Z,82.59
2023-02-15T05:11:50.477Z,82.31
2023-02-15T05:12:25.631Z,82.71
2023-02-15T05:12:59.539Z,82.74
2023-02-15T05:13:32.648Z,82.86
2023-02-15T05:14:40.507Z,82.67
2023-02-15T05:15:15.573Z,83.04
2023-02-15T05:15:51.483Z,83.17
2023-02-15T05:16:28.785Z,82.73
2023-02-15T05:17:04.317Z,82.69
2023-02-15T05:17:39.534Z,82.91
2023-02-15T05:18:14.693Z,83.66
2023-02-15T05:18:47.696Z,83.78
2023-02-15T05:19:20.970Z,83.98
2023-02-15T05:19:56.509Z,82.68
2023-02-15T05:20:31.532Z,82.89
2023-02-15T05:21:04.868Z,82.49
2023-02-15T05:21:38.567Z,82.44
2023-02-15T05:22:46.614Z,83.05
2023-02-15T05:23:21.538Z,82.75
2023-02-15T05:23:54.802Z,82.50
2023-02-15T05:24:47.310Z,82.76
2023-02-15T05:25:38.824Z,82.43
2023-02-15T05:27:01.798Z,83.23
2023-02-15T05:27:54.398Z,82.78
2023-02-15T05:31:03.158Z,82.93
2023-02-15T05:32:13.901Z,83.37
2023-02-15T05:32:47.383Z,83.16
2023-02-15T05:33:23.201Z,83.75
2023-02-15T05:34:31.256Z,83.17
2023-02-15T05:35:07.434Z,82.75
2023-02-15T05:35:43.140Z,83.11
2023-02-15T05:36:18.143Z,82.87
2023-02-15T05:36:53.035Z,83.06
2023-02-15T05:37:24.979Z,83.10
2023-02-15T05:37:56.835Z,83.30
2023-02-15T05:38:32.613Z,82.43
2023-02-15T05:39:09.653Z,82.71
2023-02-15T05:39:43.115Z,82.38
2023-02-15T05:40:18.627Z,82.92
2023-02-15T05:40:54.132Z,82.65
2023-02-15T05:41:27.264Z,83.19
2023-02-15T05:42:23.612Z,83.94
2023-02-15T05:43:31.638Z,83.75
2023-02-15T05:44:05.697Z,83.45
2023-02-15T05:44:41.187Z,83.51
2023-02-15T05:45:14.816Z,83.32
2023-02-15T05:46:43.378Z,83.49
2023-02-15T05:47:19.471Z,84.31
2023-02-15T05:47:52.146Z,83.24
2023-02-15T05:48:26.023Z,83.36
2023-02-15T05:49:00.263Z,83.39
2023-02-15T05:49:33.990Z,83.61
2023-02-15T05:50:06.693Z,83.10
2023-02-15T05:50:38.691Z,83.57
2023-02-15T05:51:15.052Z,83.61
2023-02-15T05:51:50.125Z,83.49
2023-02-15T05:52:25.075Z,83.54
2023-02-15T05:53:00.109Z,83.64
2023-02-15T05:53:32.964Z,83.70
2023-02-15T05:54:08.489Z,83.86
2023-02-15T05:54:44.111Z,83.80
2023-02-15T05:55:19.410Z,83.83
2023-02-15T05:55:51.390Z,83.42
2023-02-15T05:56:23.221Z,83.52
2023-02-15T05:56:55.113Z,83.58
2023-02-15T05:58:02.784Z,82.90
2023-02-15T05:58:40.309Z,82.77
2023-02-15T05:59:13.743Z,82.99
2023-02-15T06:00:26.508Z,82.50
2023-02-15T06:01:00.153Z,82.52
2023-02-15T06:01:32.026Z,81.98
2023-02-15T06:02:07.826Z,82.97
2023-02-15T06:02:43.220Z,83.04
2023-02-15T06:03:18.121Z,83.11
2023-02-15T06:03:51.302Z,82.61
2023-02-15T06:04:25.191Z,83.15
2023-02-15T06:05:29.541Z,82.10
2023-02-15T06:06:05.723Z,82.36
2023-02-15T06:06:37.698Z,82.17
2023-02-15T06:07:13.199Z,82.52
2023-02-15T06:07:48.157Z,82.86
2023-02-15T06:08:23.187Z,82.73
2023-02-15T06:08:56.140Z,82.28
2023-02-15T06:09:28.049Z,83.15
2023-02-15T06:10:41.142Z,82.52
2023-02-15T06:11:46.615Z,82.79
2023-02-15T06:12:18.518Z,82.83
2023-02-15T06:13:23.225Z,82.14
2023-02-15T06:13:58.214Z,82.31
2023-02-15T06:14:30.021Z,82.67
2023-02-15T06:15:41.669Z,81.82
2023-02-15T06:16:17.245Z,81.98
2023-02-15T06:16:51.118Z,82.16
2023-02-15T06:17:24.196Z,81.34
2023-02-15T06:17:56.154Z,81.93
2023-02-15T06:18:27.969Z,82.02
2023-02-15T06:19:00.398Z,81.49
2023-02-15T06:19:32.335Z,81.73
2023-02-15T06:20:04.743Z,81.45
2023-02-15T06:20:36.631Z,81.72
2023-02-15T06:21:42.781Z,81.70
2023-02-15T06:22:17.718Z,81.55
2023-02-15T06:22:49.610Z,81.99
2023-02-15T06:23:21.485Z,82.55
2023-02-15T06:24:26.785Z,82.09
2023-02-15T06:25:02.451Z,81.87
2023-02-15T06:25:36.095Z,82.15
2023-02-15T06:26:08.495Z,81.77
2023-02-15T06:26:40.335Z,81.44
2023-02-15T06:27:12.242Z,81.86
2023-02-15T06:28:20.247Z,82.56
2023-02-15T06:28:53.212Z,82.70
2023-02-15T06:29:41.857Z,82.42
2023-02-15T06:30:15.468Z,82.27
2023-02-15T06:30:48.365Z,82.33
2023-02-15T06:31:20.395Z,82.33
2023-02-15T06:31:54.500Z,81.85
2023-02-15T06:32:26.402Z,81.85
2023-02-15T06:32:58.357Z,82.21
2023-02-15T06:33:32.051Z,81.80
2023-02-15T06:34:42.259Z,81.78
2023-02-15T06:35:50.128Z,82.59
2023-02-15T06:36:21.941Z,81.83
2023-02-15T06:36:55.145Z,82.07
2023-02-15T06:37:28.256Z,82.34
2023-02-15T06:38:30.821Z,81.91
2023-02-15T06:39:06.106Z,82.18
2023-02-15T06:40:03.924Z,81.81
2023-02-15T06:41:08.748Z,81.34
2023-02-15T06:41:40.548Z,81.36
2023-02-15T06:42:46.358Z,80.44
2023-02-15T06:43:51.327Z,80.14
2023-02-15T06:45:00.158Z,80.22
2023-02-15T06:45:32.134Z,80.13
2023-02-15T06:46:40.384Z,79.82
2023-02-15T06:47:14.096Z,79.96
2023-02-15T06:47:45.986Z,79.88
2023-02-15T06:48:21.029Z,79.86
2023-02-15T06:48:54.142Z,80.55
2023-02-15T06:49:26.044Z,80.16
2023-02-15T06:49:58.661Z,80.22
2023-02-15T06:51:03.444Z,80.22
2023-02-15T06:51:35.316Z,80.82
2023-02-15T06:52:13.397Z,80.25
2023-02-15T06:52:49.128Z,80.09
2023-02-15T06:53:21.036Z,80.25
2023-02-15T06:53:52.898Z,80.03
2023-02-15T06:55:00.766Z,79.39
2023-02-15T06:55:32.601Z,79.96
2023-02-15T06:56:07.644Z,79.90
2023-02-15T06:57:04.579Z,79.27
2023-02-15T06:58:09.283Z,79.80
2023-02-15T06:58:41.513Z,80.22
2023-02-15T06:59:13.616Z,79.97
2023-02-15T06:59:45.447Z,79.79
2023-02-15T07:00:53.617Z,79.83
2023-02-15T07:01:25.564Z,80.06
2023-02-15T07:01:59.648Z,80.17
2023-02-15T07:03:04.066Z,79.42
2023-02-15T07:03:39.191Z,79.53
2023-02-15T07:04:14.475Z,79.66
2023-02-15T07:04:47.223Z,79.98
2023-02-15T07:05:25.565Z,79.76
2023-02-15T07:06:00.201Z,79.62
2023-02-15T07:06:34.201Z,79.51
2023-02-15T07:07:09.601Z,79.18
2023-02-15T07:08:15.233Z,78.56
2023-02-15T07:08:47.082Z,78.75
2023-02-15T07:09:55.109Z,78.88
2023-02-15T07:10:27.986Z,78.87
2023-02-15T07:11:19.764Z,79.41
2023-02-15T07:12:10.332Z,77.82
2023-02-15T07:13:15.710Z,77.63
2023-02-15T07:13:48.010Z,77.52
2023-02-15T07:14:52.559Z,77.63
2023-02-15T07:15:24.479Z,77.52
2023-02-15T07:15:56.400Z,76.96
2023-02-15T07:16:28.292Z,76.66
2023-02-15T07:17:00.176Z,76.79
2023-02-15T07:17:36.500Z,76.62
2023-02-15T07:18:12.179Z,76.27
2023-02-15T07:18:47.127Z,75.81
2023-02-15T07:19:20.109Z,75.45
2023-02-15T07:19:51.951Z,75.48
2023-02-15T07:20:24.334Z,76.13
2023-02-15T07:21:30.197Z,76.01
2023-02-15T07:22:09.890Z,76.05
2023-02-15T07:22:41.984Z,76.86
2023-02-15T07:23:13.907Z,76.55
2023-02-15T07:24:18.849Z,76.12
2023-02-15T07:24:50.910Z,76.49
2023-02-15T07:25:22.933Z,75.46
2023-02-15T07:25:58.978Z,75.79
2023-02-15T07:26:33.077Z,75.42
2023-02-15T07:27:37.917Z,75.22
2023-02-15T07:28:10.557Z,74.70
2023-02-15T07:29:14.929Z,74.56
2023-02-15T07:29:46.797Z,74.62
2023-02-15T07:30:18.940Z,74.84
2023-02-15T07:30:51.036Z,74.61
2023-02-15T07:31:22.960Z,74.61
2023-02-15T07:31:54.849Z,74.06
2023-02-15T07:32:30.886Z,73.69
2023-02-15T07:33:20.975Z,73.66
2023-02-15T07:34:30.181Z,74.15
2023-02-15T07:35:02.233Z,74.13
2023-02-15T07:35:34.583Z,72.59
2023-02-15T07:36:06.855Z,72.29
2023-02-15T07:37:11.668Z,72.69
2023-02-15T07:37:43.593Z,72.01
2023-02-15T07:38:15.797Z,72.20
2023-02-15T07:38:47.986Z,72.77
2023-02-15T07:39:52.686Z,71.52
2023-02-15T07:40:24.608Z,72.07
2023-02-15T07:41:00.444Z,72.01
2023-02-15T07:41:35.035Z,70.57
2023-02-15T07:42:06.978Z,71.01
2023-02-15T07:42:38.862Z,70.78
2023-02-15T07:43:10.887Z,71.34
2023-02-15T07:43:44.117Z,69.72
2023-02-15T07:44:17.338Z,70.19
2023-02-15T07:44:49.375Z,70.04
2023-02-15T07:45:21.832Z,69.92
2023-02-15T07:45:53.742Z,68.57
2023-02-15T07:46:25.801Z,68.50
2023-02-15T07:46:57.806Z,68.48
2023-02-15T07:47:29.697Z,67.59
2023-02-15T07:48:02.383Z,67.56
2023-02-15T07:48:34.902Z,66.95
2023-02-15T07:49:06.752Z,66.73
2023-02-15T07:49:39.892Z,66.72
2023-02-15T07:50:11.690Z,66.07
2023-02-15T07:50:43.500Z,65.46
2023-02-15T07:51:15.711Z,65.94
2023-02-15T07:51:47.526Z,65.92
2023-02-15T07:52:19.328Z,66.04
2023-02-15T07:52:51.218Z,66.66
2023-02-15T07:53:23.034Z,66.29
2023-02-15T07:53:55.029Z,65.87
2023-02-15T07:54:26.959Z,65.52
2023-02-15T07:54:58.798Z,63.77
2023-02-15T07:55:30.640Z,63.76
2023-02-15T07:56:03.731Z,64.92
2023-02-15T07:56:37.416Z,64.88
2023-02-15T07:57:09.209Z,64.45
2023-02-15T07:57:47.832Z,63.75
2023-02-15T07:58:20.191Z,63.43
2023-02-15T07:58:52.139Z,63.86
2023-02-15T07:59:25.186Z,63.36
2023-02-15T07:59:57.603Z,65.24
2023-02-15T08:00:30.931Z,64.78
2023-02-15T08:01:05.219Z,65.56
2023-02-15T08:01:37.945Z,63.89
2023-02-15T08:02:11.544Z,64.50
2023-02-15T08:02:43.831Z,64.02
2023-02-15T08:03:15.874Z,64.23
2023-02-15T08:03:47.991Z,64.72
2023-02-15T08:04:19.861Z,65.39
2023-02-15T08:04:51.785Z,65.01
2023-02-15T08:05:23.682Z,64.08
2023-02-15T08:05:59.643Z,63.25
2023-02-15T08:06:35.921Z,63.46
2023-02-15T08:07:08.211Z,63.32
2023-02-15T08:07:40.035Z,63.70
2023-02-15T08:08:30.924Z,63.82
2023-02-15T08:09:06.417Z,64.27
2023-02-15T08:09:38.243Z,63.77
2023-02-15T08:10:10.368Z,63.03
2023-02-15T08:11:00.653Z,63.74
2023-02-15T08:11:33.883Z,63.48
2023-02-15T08:12:06.013Z,62.98
2023-02-15T08:12:37.894Z,62.96
2023-02-15T08:13:09.738Z,62.94
2023-02-15T08:13:54.653Z,63.37
2023-02-15T08:14:28.492Z,62.61
2023-02-15T08:15:00.372Z,60.96
2023-02-15T08:15:32.669Z,61.17
2023-02-15T08:16:05.134Z,62.04
2023-02-15T08:16:41.640Z,61.95
2023-02-15T08:17:13.582Z,61.67
2023-02-15T08:17:45.441Z,61.51
2023-02-15T08:18:17.376Z,61.34
2023-02-15T08:18:49.323Z,60.64
2023-02-15T08:19:31.029Z,60.62
2023-02-15T08:20:02.874Z,60.37
2023-02-15T08:20:34.751Z,59.38
2023-02-15T08:21:06.592Z,60.00
2023-02-15T08:21:40.456Z,60.00
2023-02-15T08:22:14.059Z,60.10
2023-02-15T08:22:45.878Z,59.57
2023-02-15T08:23:17.771Z,59.46
2023-02-15T08:23:49.601Z,59.88
2023-02-15T08:24:22.300Z,60.36
2023-02-15T08:24:54.130Z,60.62
2023-02-15T08:25:26.075Z,60.97
2023-02-15T08:26:01.348Z,60.91
2023-02-15T08:26:33.677Z,59.98
2023-02-15T08:27:08.810Z,60.92
2023-02-15T08:27:40.665Z,61.06
2023-02-15T08:28:12.397Z,59.44
2023-02-15T08:28:44.830Z,59.75
2023-02-15T08:29:18.293Z,59.69
2023-02-15T08:29:50.138Z,59.58
2023-02-15T08:30:22.205Z,59.74
2023-02-15T08:30:54.161Z,60.18
2023-02-15T08:31:26.313Z,59.24
2023-02-15T08:32:03.126Z,59.07
2023-02-15T08:32:35.429Z,59.53
2023-02-15T08:33:07.248Z,59.16
2023-02-15T08:33:39.870Z,59.70
2023-02-15T08:34:12.775Z,59.12
2023-02-15T08:34:44.750Z,59.67
2023-02-15T08:35:16.655Z,59.26